マレ の空港の天気 - METARとTAF

マレ国際空港 ( VRMM / MLE ) - モルディブ Hulhule Island, North Male Atoll
飛行場実況気象(Metar)
観測時間04/21 21:00 MVT (04/21 16:00 UTC)
風向・風速北西 5m/s
視程10km以上
天気現象
少しの雲 雲底高度 550m
全天の8割程度の雲 雲底高度 7920m
気温30℃
湿度79%
気圧1008hPa
METARVRMM 211600Z 32009KT 9999 FEW018TCU BKN260 30/26 Q1008 TEMPO FEW018CB
過去の天気等 Google飛行場航空写真 Wunderground天気予報

過去48時間のMETAR

飛行場予報(TAF)
発表時間: 4/21 16:00 MVT (4/21 11:00 UTC)
予報対象時間: 21日17時 MVT ~ 22日23時 MVT
風向・風速西北西 3m/s
視程10km以上
少しの雲 雲底高度 550m
21日17時 MVT ~ 21日23時 MVT に一時的に
視程5000m
天気現象弱い雷雨
少しの積乱雲 雲底高度 520m
TAF VRMM 211100Z 2112/2218 30006KT 9999 FEW018
TEMPO 2112/2118 5000 -TSRA FEW017CB